createdAt,value
2017-06-23T00:00:12.117Z,0.00
2017-06-23T00:01:00.189Z,0.00
2017-06-23T00:01:55.219Z,0.00
2017-06-23T00:02:50.300Z,0.00
2017-06-23T00:03:44.401Z,0.00
2017-06-23T00:04:33.355Z,0.00
2017-06-23T00:05:27.270Z,0.00
2017-06-23T00:06:16.495Z,0.00
2017-06-23T00:07:10.452Z,0.00
2017-06-23T00:08:05.623Z,0.00
2017-06-23T00:08:53.898Z,0.00
2017-06-23T00:09:42.707Z,0.00
2017-06-23T00:10:42.672Z,0.00
2017-06-23T00:11:31.367Z,0.00
2017-06-23T00:12:25.282Z,0.00
2017-06-23T00:13:25.899Z,0.00
2017-06-23T00:14:25.616Z,0.00
2017-06-23T00:15:19.375Z,0.00
2017-06-23T00:16:19.944Z,0.00
2017-06-23T00:17:13.549Z,0.00
2017-06-23T00:18:01.503Z,0.00
2017-06-23T00:18:51.183Z,0.00
2017-06-23T00:19:50.917Z,0.00
2017-06-23T00:20:45.588Z,0.00
2017-06-23T00:21:34.863Z,0.00
2017-06-23T00:22:34.747Z,0.00
2017-06-23T00:23:28.790Z,0.00
2017-06-23T00:24:23.893Z,0.00
2017-06-23T00:25:24.183Z,0.00
2017-06-23T00:26:18.885Z,0.00
2017-06-23T00:27:07.144Z,0.00
2017-06-23T00:27:56.512Z,0.00
2017-06-23T00:28:45.561Z,0.00
2017-06-23T00:29:34.608Z,0.00
2017-06-23T00:30:23.625Z,0.00
2017-06-23T00:31:18.711Z,0.00
2017-06-23T00:32:07.713Z,0.00
2017-06-23T00:33:01.796Z,0.00
2017-06-23T00:33:55.830Z,0.00
2017-06-23T00:34:44.775Z,0.00
2017-06-23T00:35:38.865Z,0.00
2017-06-23T00:36:32.999Z,0.00
2017-06-23T00:37:27.481Z,0.00
2017-06-23T00:38:16.497Z,0.00
2017-06-23T00:39:05.935Z,0.00
2017-06-23T00:39:54.714Z,0.00
2017-06-23T00:40:43.760Z,0.00
2017-06-23T00:41:44.150Z,0.00
2017-06-23T00:42:32.055Z,0.00
2017-06-23T00:43:27.220Z,0.00
2017-06-23T00:44:22.474Z,0.00
2017-06-23T00:45:15.865Z,0.00
2017-06-23T00:46:15.867Z,0.00
2017-06-23T00:47:10.204Z,0.00
2017-06-23T00:48:10.957Z,0.00
2017-06-23T00:49:11.331Z,0.00
2017-06-23T00:50:06.071Z,0.00
2017-06-23T00:50:54.071Z,0.00
2017-06-23T00:51:42.388Z,0.00
2017-06-23T00:52:43.230Z,0.00
2017-06-23T00:53:38.747Z,0.00
2017-06-23T00:54:26.638Z,0.00
2017-06-23T00:55:20.269Z,0.00
2017-06-23T00:56:15.394Z,0.00
2017-06-23T00:57:04.370Z,0.00
2017-06-23T00:58:05.077Z,0.00
2017-06-23T00:58:59.202Z,0.00
2017-06-23T00:59:58.988Z,0.00
2017-06-23T01:00:53.046Z,0.00
2017-06-23T01:01:48.166Z,0.00
2017-06-23T01:02:37.178Z,0.00
2017-06-23T01:03:25.706Z,0.00
2017-06-23T01:04:15.280Z,0.00
2017-06-23T01:05:03.802Z,0.00
2017-06-23T01:05:57.787Z,0.00
2017-06-23T01:06:52.839Z,0.00
2017-06-23T01:07:52.863Z,0.00
2017-06-23T01:08:42.465Z,0.00
2017-06-23T01:09:36.978Z,0.00
2017-06-23T01:10:31.424Z,0.00
2017-06-23T01:11:26.038Z,0.00
2017-06-23T01:12:20.549Z,0.00
2017-06-23T01:13:14.153Z,0.00
2017-06-23T01:14:03.782Z,0.00
2017-06-23T01:14:51.832Z,0.00
2017-06-23T01:15:51.311Z,0.00
2017-06-23T01:16:39.321Z,0.00
2017-06-23T01:17:28.067Z,0.00
2017-06-23T01:18:22.400Z,0.00
2017-06-23T01:19:11.058Z,0.00
2017-06-23T01:20:05.835Z,0.00
2017-06-23T01:20:54.693Z,0.00
2017-06-23T01:21:43.559Z,0.00
2017-06-23T01:22:32.585Z,0.00
2017-06-23T01:23:26.714Z,0.00
2017-06-23T01:24:21.209Z,0.00
2017-06-23T01:25:16.585Z,0.00
2017-06-23T01:26:04.292Z,0.00
2017-06-23T01:26:53.296Z,0.00
2017-06-23T01:27:47.430Z,0.00
2017-06-23T01:28:47.472Z,0.00
2017-06-23T01:29:36.581Z,0.00
2017-06-23T01:30:24.640Z,0.00
2017-06-23T01:31:13.599Z,0.00
2017-06-23T01:32:02.633Z,0.00
2017-06-23T01:33:02.657Z,0.00
2017-06-23T01:33:57.698Z,0.00
2017-06-23T01:34:51.681Z,0.00
2017-06-23T01:35:46.860Z,0.00
2017-06-23T01:36:40.846Z,0.00
2017-06-23T01:37:34.880Z,0.00
2017-06-23T01:38:28.853Z,0.00
2017-06-23T01:39:28.931Z,0.00
2017-06-23T01:40:16.972Z,0.00
2017-06-23T01:41:05.064Z,0.00
2017-06-23T01:41:54.109Z,0.00
2017-06-23T01:42:49.051Z,0.00
2017-06-23T01:43:38.242Z,0.00
2017-06-23T01:44:27.167Z,0.00
2017-06-23T01:45:27.275Z,0.00
2017-06-23T01:46:21.565Z,0.00
2017-06-23T01:47:15.322Z,0.00
2017-06-23T01:48:09.437Z,0.00
2017-06-23T01:49:03.506Z,0.00
2017-06-23T01:49:57.485Z,0.00
2017-06-23T01:50:51.474Z,0.00
2017-06-23T01:51:39.511Z,0.00
2017-06-23T01:52:33.622Z,0.00
2017-06-23T01:53:21.276Z,0.00
2017-06-23T01:54:15.768Z,0.00
2017-06-23T01:55:09.718Z,0.00
2017-06-23T01:56:03.805Z,0.00
2017-06-23T01:56:52.808Z,0.00
2017-06-23T01:57:41.934Z,0.00
2017-06-23T01:58:35.742Z,0.00
2017-06-23T01:59:30.986Z,0.00
2017-06-23T02:00:25.063Z,0.00
2017-06-23T02:01:20.040Z,0.00
2017-06-23T02:02:14.205Z,0.00
2017-06-23T02:03:09.104Z,0.00
2017-06-23T02:04:03.244Z,0.00
2017-06-23T02:04:50.926Z,0.00
2017-06-23T02:05:46.304Z,0.00
2017-06-23T02:06:40.290Z,0.00
2017-06-23T02:07:35.341Z,0.00
2017-06-23T02:08:29.346Z,0.00
2017-06-23T02:09:17.510Z,0.00
2017-06-23T02:10:10.958Z,0.00
2017-06-23T02:11:00.367Z,0.00
2017-06-23T02:12:00.017Z,0.00
2017-06-23T02:12:54.686Z,0.00
2017-06-23T02:13:42.635Z,0.00
2017-06-23T02:14:30.243Z,0.00
2017-06-23T02:15:25.563Z,0.00
2017-06-23T02:16:26.251Z,0.00
2017-06-23T02:17:14.285Z,0.00
2017-06-23T02:18:14.561Z,0.00
2017-06-23T02:19:09.973Z,0.00
2017-06-23T02:20:03.424Z,0.00
2017-06-23T02:21:03.392Z,0.00
2017-06-23T02:21:57.483Z,0.00
2017-06-23T02:22:51.605Z,0.00
2017-06-23T02:23:45.995Z,0.00
2017-06-23T02:24:40.963Z,0.00
2017-06-23T02:25:40.629Z,0.00
2017-06-23T02:26:29.687Z,0.00
2017-06-23T02:27:23.771Z,0.00
2017-06-23T02:28:12.768Z,0.00
2017-06-23T02:29:08.265Z,0.00
2017-06-23T02:30:01.946Z,0.00
2017-06-23T02:30:55.896Z,0.00
2017-06-23T02:31:50.991Z,0.00
2017-06-23T02:32:38.995Z,0.00
2017-06-23T02:33:28.057Z,0.00
2017-06-23T02:34:17.658Z,0.00
2017-06-23T02:35:06.152Z,0.00
2017-06-23T02:35:54.256Z,0.00
2017-06-23T02:36:49.320Z,0.00
2017-06-23T02:37:43.281Z,0.00
2017-06-23T02:38:32.285Z,0.00
2017-06-23T02:39:32.406Z,0.00
2017-06-23T02:40:21.388Z,0.00
2017-06-23T02:41:09.451Z,0.00
2017-06-23T02:41:58.503Z,0.00
2017-06-23T02:42:47.685Z,0.00
2017-06-23T02:43:42.240Z,0.00
2017-06-23T02:44:42.695Z,0.00
2017-06-23T02:45:37.674Z,0.00
2017-06-23T02:46:32.702Z,0.00
2017-06-23T02:47:20.713Z,0.00
2017-06-23T02:48:15.782Z,0.00
2017-06-23T02:49:04.433Z,0.00
2017-06-23T02:49:53.009Z,0.00
2017-06-23T02:50:46.921Z,0.00
2017-06-23T02:51:35.947Z,0.00
2017-06-23T02:52:30.029Z,0.00
2017-06-23T02:53:18.038Z,0.00
2017-06-23T02:54:12.405Z,0.00
2017-06-23T02:55:06.568Z,0.00
2017-06-23T02:56:00.492Z,0.00
2017-06-23T02:56:48.626Z,0.00
2017-06-23T02:57:37.710Z,0.00
2017-06-23T02:58:26.731Z,0.00
2017-06-23T02:59:27.839Z,0.00
2017-06-23T03:00:28.052Z,0.00
2017-06-23T03:01:21.570Z,0.00
2017-06-23T03:02:15.492Z,0.00
2017-06-23T03:03:10.590Z,0.00
2017-06-23T03:03:59.593Z,0.00
2017-06-23T03:04:59.583Z,0.00
2017-06-23T03:05:54.743Z,0.00
2017-06-23T03:06:48.661Z,0.00
2017-06-23T03:07:43.763Z,0.00
2017-06-23T03:08:33.290Z,0.00
2017-06-23T03:09:27.061Z,0.00
2017-06-23T03:10:27.156Z,0.00
2017-06-23T03:11:15.877Z,0.00
2017-06-23T03:12:09.976Z,0.00
2017-06-23T03:13:03.996Z,0.00
2017-06-23T03:13:58.090Z,0.00
2017-06-23T03:14:52.357Z,0.00
2017-06-23T03:15:41.184Z,0.00
2017-06-23T03:16:36.529Z,0.00
2017-06-23T03:17:24.199Z,0.00
2017-06-23T03:18:13.270Z,0.00
2017-06-23T03:19:08.316Z,0.01
2017-06-23T03:20:08.485Z,0.01
2017-06-23T03:21:02.495Z,0.01
2017-06-23T03:21:56.805Z,0.01
2017-06-23T03:22:45.495Z,0.01
2017-06-23T03:23:40.141Z,0.01
2017-06-23T03:24:34.076Z,0.01
2017-06-23T03:25:27.585Z,0.01
2017-06-23T03:26:15.620Z,0.02
2017-06-23T03:27:03.682Z,0.02
2017-06-23T03:27:58.713Z,0.02
2017-06-23T03:28:54.428Z,0.02
2017-06-23T03:29:47.874Z,0.02
2017-06-23T03:30:41.876Z,0.02
2017-06-23T03:31:35.921Z,0.02
2017-06-23T03:32:29.954Z,0.02
2017-06-23T03:33:25.021Z,0.02
2017-06-23T03:34:26.089Z,0.02
2017-06-23T03:35:20.254Z,0.03
2017-06-23T03:36:09.167Z,0.03
2017-06-23T03:36:58.158Z,0.03
2017-06-23T03:37:46.290Z,0.03
2017-06-23T03:38:34.292Z,0.03
2017-06-23T03:39:28.826Z,0.03
2017-06-23T03:40:17.384Z,0.03
2017-06-23T03:41:11.404Z,0.03
2017-06-23T03:42:05.471Z,0.03
2017-06-23T03:42:54.547Z,0.03
2017-06-23T03:43:49.616Z,0.03
2017-06-23T03:44:49.626Z,0.03
2017-06-23T03:45:43.771Z,0.03
2017-06-23T03:46:43.634Z,0.03
2017-06-23T03:47:37.703Z,0.04
2017-06-23T03:48:32.337Z,0.04
2017-06-23T03:49:20.800Z,0.04
2017-06-23T03:50:15.371Z,0.04
2017-06-23T03:51:10.362Z,0.04
2017-06-23T03:52:09.928Z,0.04
2017-06-23T03:53:09.990Z,0.04
2017-06-23T03:54:11.474Z,0.04
2017-06-23T03:54:59.111Z,0.04
2017-06-23T03:55:54.103Z,0.04
2017-06-23T03:56:48.124Z,0.04
2017-06-23T03:57:43.671Z,0.04
2017-06-23T03:58:38.215Z,0.05
2017-06-23T03:59:32.730Z,0.05
2017-06-23T04:00:32.302Z,0.05
2017-06-23T04:01:27.325Z,0.05
2017-06-23T04:02:21.383Z,0.05
2017-06-23T04:03:10.402Z,0.05
2017-06-23T04:03:59.578Z,0.05
2017-06-23T04:04:48.544Z,0.05
2017-06-23T04:05:37.560Z,0.05
2017-06-23T04:06:27.182Z,0.06
2017-06-23T04:07:14.642Z,0.06
2017-06-23T04:08:02.730Z,0.06
2017-06-23T04:08:56.708Z,0.06
2017-06-23T04:09:50.869Z,0.06
2017-06-23T04:10:45.825Z,0.06
2017-06-23T04:11:45.865Z,0.07
2017-06-23T04:12:41.130Z,0.07
2017-06-23T04:13:35.024Z,0.07
2017-06-23T04:14:29.086Z,0.07
2017-06-23T04:15:29.447Z,0.07
2017-06-23T04:16:23.520Z,0.07
2017-06-23T04:17:12.527Z,0.07
2017-06-23T04:18:00.657Z,0.07
2017-06-23T04:18:54.205Z,0.07
2017-06-23T04:19:49.257Z,0.07
2017-06-23T04:20:43.330Z,0.07
2017-06-23T04:21:31.721Z,0.07
2017-06-23T04:22:31.424Z,0.07
2017-06-23T04:23:25.456Z,0.07
2017-06-23T04:24:13.450Z,0.08
2017-06-23T04:25:02.606Z,0.08
2017-06-23T04:26:04.097Z,0.09
2017-06-23T04:26:52.593Z,0.09
2017-06-23T04:27:40.674Z,0.09
2017-06-23T04:28:29.870Z,0.10
2017-06-23T04:29:29.982Z,0.11
2017-06-23T04:30:23.752Z,0.11
2017-06-23T04:31:13.037Z,0.11
2017-06-23T04:32:08.231Z,0.13
2017-06-23T04:33:08.196Z,0.14
2017-06-23T04:33:56.497Z,0.13
2017-06-23T04:34:56.377Z,0.13
2017-06-23T04:35:50.058Z,0.14
2017-06-23T04:36:38.572Z,0.14
2017-06-23T04:37:32.613Z,0.13
2017-06-23T04:38:21.187Z,0.12
2017-06-23T04:39:16.644Z,0.14
2017-06-23T04:40:10.738Z,0.14
2017-06-23T04:41:10.633Z,0.14
2017-06-23T04:42:05.725Z,0.14
2017-06-23T04:42:59.403Z,0.15
2017-06-23T04:43:53.466Z,0.15
2017-06-23T04:44:47.933Z,0.15
2017-06-23T04:45:36.974Z,0.15
2017-06-23T04:46:26.003Z,0.15
2017-06-23T04:47:20.674Z,0.15
2017-06-23T04:48:15.835Z,0.14
2017-06-23T04:49:09.890Z,0.14
2017-06-23T04:50:03.796Z,0.14
2017-06-23T04:50:59.395Z,0.14
2017-06-23T04:51:59.435Z,0.12
2017-06-23T04:52:53.474Z,0.16
2017-06-23T04:53:47.562Z,0.16
2017-06-23T04:54:47.626Z,0.15
2017-06-23T04:55:41.605Z,0.13
2017-06-23T04:56:36.638Z,0.17
2017-06-23T04:57:31.745Z,0.19
2017-06-23T04:58:26.814Z,0.19
2017-06-23T04:59:26.830Z,0.15
2017-06-23T05:00:21.878Z,0.15
2017-06-23T05:01:21.913Z,0.17
2017-06-23T05:02:16.919Z,0.12
2017-06-23T05:03:16.947Z,0.11
2017-06-23T05:04:06.032Z,0.12
2017-06-23T05:05:00.052Z,0.11
2017-06-23T05:05:55.089Z,0.12
2017-06-23T05:06:44.087Z,0.13
2017-06-23T05:07:39.203Z,0.12
2017-06-23T05:08:33.201Z,0.12
2017-06-23T05:09:27.323Z,0.13
2017-06-23T05:10:22.320Z,0.12
2017-06-23T05:11:11.372Z,0.11
2017-06-23T05:12:05.438Z,0.19
2017-06-23T05:13:00.485Z,0.21
2017-06-23T05:13:54.487Z,0.26
2017-06-23T05:14:48.734Z,0.25
2017-06-23T05:15:48.651Z,0.24
2017-06-23T05:16:42.627Z,0.22
2017-06-23T05:17:36.761Z,0.22
2017-06-23T05:18:31.739Z,0.22
2017-06-23T05:19:25.790Z,0.26
2017-06-23T05:20:25.857Z,0.25
2017-06-23T05:21:20.919Z,0.17
2017-06-23T05:22:09.912Z,0.18
2017-06-23T05:23:04.017Z,0.26
2017-06-23T05:24:05.073Z,0.18
2017-06-23T05:24:59.092Z,0.30
2017-06-23T05:25:59.190Z,0.37
2017-06-23T05:26:53.159Z,0.35
2017-06-23T05:27:47.244Z,0.27
2017-06-23T05:28:47.348Z,0.15
2017-06-23T05:29:36.345Z,0.16
2017-06-23T05:30:30.367Z,0.14
2017-06-23T05:31:24.670Z,0.17
2017-06-23T05:32:12.433Z,0.18
2017-06-23T05:33:13.536Z,0.26
2017-06-23T05:34:13.522Z,0.29
2017-06-23T05:35:07.604Z,0.35
2017-06-23T05:36:02.666Z,0.37
2017-06-23T05:36:50.768Z,0.27
2017-06-23T05:37:39.774Z,0.25
2017-06-23T05:38:33.854Z,0.32
2017-06-23T05:39:33.853Z,0.29
2017-06-23T05:40:21.989Z,0.31
2017-06-23T05:41:21.970Z,0.32
2017-06-23T05:42:16.043Z,0.27
2017-06-23T05:43:10.084Z,0.35
2017-06-23T05:44:05.149Z,0.40
2017-06-23T05:44:59.165Z,0.39
2017-06-23T05:45:54.235Z,0.31
2017-06-23T05:46:48.277Z,0.44
2017-06-23T05:47:48.338Z,0.45
2017-06-23T05:48:42.354Z,0.48
2017-06-23T05:49:36.513Z,0.50
2017-06-23T05:50:36.520Z,0.31
2017-06-23T05:51:30.361Z,0.21
2017-06-23T05:52:24.544Z,0.19
2017-06-23T05:53:18.504Z,0.19
2017-06-23T05:54:12.712Z,0.19
2017-06-23T05:55:06.790Z,0.20
2017-06-23T05:56:01.785Z,0.22
2017-06-23T05:56:56.849Z,0.21
2017-06-23T05:57:45.867Z,0.22
2017-06-23T05:58:39.995Z,0.24
2017-06-23T05:59:35.041Z,0.25
2017-06-23T06:00:29.083Z,0.26
2017-06-23T06:01:24.242Z,0.24
2017-06-23T06:02:18.160Z,0.27
2017-06-23T06:03:12.255Z,0.26
2017-06-23T06:04:07.390Z,0.26
2017-06-23T06:04:56.341Z,0.29
2017-06-23T06:05:51.434Z,0.32
2017-06-23T06:06:45.505Z,0.40
2017-06-23T06:07:45.473Z,0.27
2017-06-23T06:08:39.523Z,0.27
2017-06-23T06:09:33.580Z,0.29
2017-06-23T06:10:33.668Z,0.49
2017-06-23T06:11:28.730Z,0.53
2017-06-23T06:12:28.855Z,0.57
2017-06-23T06:13:22.773Z,0.59
2017-06-23T06:14:22.920Z,0.58
2017-06-23T06:15:17.894Z,0.56
2017-06-23T06:16:06.962Z,0.56
2017-06-23T06:17:02.020Z,0.54
2017-06-23T06:17:56.091Z,0.41
2017-06-23T06:18:56.112Z,0.47
2017-06-23T06:19:51.190Z,0.36
2017-06-23T06:20:51.485Z,0.32
2017-06-23T06:21:51.236Z,0.32
2017-06-23T06:22:46.356Z,0.39
2017-06-23T06:23:41.340Z,0.31
2017-06-23T06:24:35.425Z,0.29
2017-06-23T06:25:29.459Z,0.25
2017-06-23T06:26:23.529Z,0.23
2017-06-23T06:27:12.633Z,0.22
2017-06-23T06:28:07.645Z,0.20
2017-06-23T06:28:56.656Z,0.20
2017-06-23T06:29:56.789Z,0.22
2017-06-23T06:30:50.801Z,0.23
2017-06-23T06:31:44.895Z,0.25
2017-06-23T06:32:39.922Z,0.30
2017-06-23T06:33:34.995Z,0.31
2017-06-23T06:34:35.012Z,0.32
2017-06-23T06:35:35.068Z,0.45
2017-06-23T06:36:35.120Z,0.42
2017-06-23T06:37:29.423Z,0.47
2017-06-23T06:38:23.237Z,0.39
2017-06-23T06:39:17.235Z,0.35
2017-06-23T06:40:11.319Z,0.37
2017-06-23T06:41:05.365Z,0.32
2017-06-23T06:42:05.430Z,0.34
2017-06-23T06:43:00.490Z,0.35
2017-06-23T06:43:55.558Z,0.39
2017-06-23T06:44:55.555Z,0.55
2017-06-23T06:45:49.727Z,0.34
2017-06-23T06:46:43.653Z,0.30
2017-06-23T06:47:37.732Z,0.32
2017-06-23T06:48:31.809Z,0.27
2017-06-23T06:49:31.824Z,0.24
2017-06-23T06:50:26.933Z,0.25
2017-06-23T06:51:20.965Z,0.30
2017-06-23T06:52:16.025Z,0.46
2017-06-23T06:53:11.016Z,0.48
2017-06-23T06:54:05.136Z,0.56
2017-06-23T06:55:05.175Z,0.40
2017-06-23T06:55:54.227Z,0.39
2017-06-23T06:56:43.308Z,0.47
2017-06-23T06:57:38.248Z,0.33
2017-06-23T06:58:32.388Z,0.34
2017-06-23T06:59:27.537Z,0.56
2017-06-23T07:00:21.399Z,0.59
2017-06-23T07:01:10.524Z,0.54
2017-06-23T07:02:04.306Z,0.61
2017-06-23T07:02:52.519Z,0.64
2017-06-23T07:03:47.844Z,0.69
2017-06-23T07:04:41.616Z,0.40
2017-06-23T07:05:30.780Z,0.46
2017-06-23T07:06:25.891Z,0.59
2017-06-23T07:07:15.001Z,0.67
2017-06-23T07:08:09.038Z,0.74
2017-06-23T07:09:02.994Z,0.67
2017-06-23T07:09:52.233Z,0.64
2017-06-23T07:10:47.238Z,0.51
2017-06-23T07:11:41.254Z,0.69
2017-06-23T07:12:36.240Z,0.76
2017-06-23T07:13:30.419Z,0.81
2017-06-23T07:14:24.449Z,0.80
2017-06-23T07:15:24.559Z,0.64
2017-06-23T07:16:18.579Z,0.54
2017-06-23T07:17:07.716Z,0.40
2017-06-23T07:17:55.759Z,0.63
2017-06-23T07:18:55.767Z,0.46
2017-06-23T07:19:49.794Z,0.69
2017-06-23T07:20:45.208Z,0.66
2017-06-23T07:21:34.012Z,0.55
2017-06-23T07:22:23.017Z,0.56
2017-06-23T07:23:12.109Z,0.57
2017-06-23T07:24:06.154Z,0.72
2017-06-23T07:25:01.170Z,0.42
2017-06-23T07:25:50.815Z,0.52
2017-06-23T07:26:44.290Z,0.52
2017-06-23T07:27:33.374Z,0.61
2017-06-23T07:28:22.419Z,0.72
2017-06-23T07:29:17.221Z,0.90
2017-06-23T07:30:11.524Z,0.39
2017-06-23T07:31:11.901Z,0.53
2017-06-23T07:32:06.473Z,0.31
2017-06-23T07:32:54.746Z,0.31
2017-06-23T07:33:50.058Z,0.72
2017-06-23T07:34:44.785Z,0.82
2017-06-23T07:35:39.761Z,0.87
2017-06-23T07:36:34.055Z,0.83
2017-06-23T07:37:28.002Z,0.76
2017-06-23T07:38:27.759Z,0.79
2017-06-23T07:39:23.101Z,0.84
2017-06-23T07:40:17.224Z,0.83
2017-06-23T07:41:06.362Z,0.84
2017-06-23T07:41:54.533Z,0.82
2017-06-23T07:42:49.333Z,0.86
2017-06-23T07:43:44.527Z,0.88
2017-06-23T07:44:39.703Z,0.84
2017-06-23T07:45:34.776Z,0.95
2017-06-23T07:46:23.797Z,0.94
2017-06-23T07:47:11.826Z,0.39
2017-06-23T07:48:01.001Z,0.42
2017-06-23T07:49:00.987Z,0.36
2017-06-23T07:49:55.042Z,0.44
2017-06-23T07:50:43.232Z,0.31
2017-06-23T07:51:42.772Z,0.78
2017-06-23T07:52:37.369Z,0.80
2017-06-23T07:53:26.361Z,0.86
2017-06-23T07:54:21.461Z,0.89
2017-06-23T07:55:10.585Z,0.87
2017-06-23T07:55:59.599Z,0.29
2017-06-23T07:56:59.699Z,0.85
2017-06-23T07:57:53.811Z,0.90
2017-06-23T07:58:47.912Z,0.90
2017-06-23T07:59:42.879Z,0.87
2017-06-23T08:00:30.943Z,0.36
2017-06-23T08:01:25.039Z,0.51
2017-06-23T08:02:14.162Z,0.88
2017-06-23T08:03:09.276Z,0.88
2017-06-23T08:04:09.334Z,0.90
2017-06-23T08:05:04.314Z,0.93
2017-06-23T08:05:53.445Z,0.90
2017-06-23T08:06:48.484Z,0.44
2017-06-23T08:07:42.623Z,0.69
2017-06-23T08:08:37.711Z,0.39
2017-06-23T08:09:37.757Z,0.57
2017-06-23T08:10:31.877Z,0.86
2017-06-23T08:11:25.976Z,0.38
2017-06-23T08:12:19.994Z,0.67
2017-06-23T08:13:15.075Z,0.32
2017-06-23T08:14:04.214Z,0.33
2017-06-23T08:14:58.163Z,0.36
2017-06-23T08:15:52.238Z,0.83
2017-06-23T08:16:47.339Z,0.94
2017-06-23T08:17:36.419Z,0.94
2017-06-23T08:18:25.475Z,0.35
2017-06-23T08:19:19.799Z,0.34
2017-06-23T08:20:19.662Z,0.40
2017-06-23T08:21:08.727Z,0.74
2017-06-23T08:21:57.836Z,0.36
2017-06-23T08:22:51.847Z,0.36
2017-06-23T08:23:46.042Z,0.35
2017-06-23T08:24:41.383Z,0.45
2017-06-23T08:25:35.024Z,0.42
2017-06-23T08:26:29.178Z,0.40
2017-06-23T08:27:29.184Z,0.73
2017-06-23T08:28:24.228Z,0.31
2017-06-23T08:29:19.290Z,0.38
2017-06-23T08:30:13.471Z,0.93
2017-06-23T08:31:07.475Z,0.92
2017-06-23T08:32:01.467Z,0.90
2017-06-23T08:32:55.548Z,0.87
2017-06-23T08:33:49.641Z,0.42
2017-06-23T08:34:49.640Z,0.41
2017-06-23T08:35:50.745Z,0.86
2017-06-23T08:36:38.868Z,0.86
2017-06-23T08:37:27.925Z,0.87
2017-06-23T08:38:23.002Z,0.85
2017-06-23T08:39:23.038Z,0.33
2017-06-23T08:40:11.183Z,0.33
2017-06-23T08:41:06.295Z,0.34
2017-06-23T08:42:01.290Z,0.38
2017-06-23T08:42:56.357Z,0.37
2017-06-23T08:43:45.391Z,0.34
2017-06-23T08:44:33.504Z,0.34
2017-06-23T08:45:22.515Z,0.33
2017-06-23T08:46:17.791Z,0.34
2017-06-23T08:47:11.703Z,0.39
2017-06-23T08:48:11.700Z,0.53
2017-06-23T08:49:06.800Z,0.43
2017-06-23T08:50:01.846Z,0.47
2017-06-23T08:50:55.873Z,1.01
2017-06-23T08:51:50.973Z,0.95
2017-06-23T08:52:45.037Z,0.86
2017-06-23T08:53:45.075Z,0.43
2017-06-23T08:54:39.130Z,0.36
2017-06-23T08:55:33.189Z,0.33
2017-06-23T08:56:27.299Z,0.28
2017-06-23T08:57:22.650Z,0.23
2017-06-23T08:58:23.383Z,0.22
2017-06-23T08:59:12.437Z,0.25
2017-06-23T09:00:07.493Z,0.28
2017-06-23T09:01:07.546Z,0.33
2017-06-23T09:02:01.638Z,0.35
2017-06-23T09:02:55.899Z,0.36
2017-06-23T09:03:49.766Z,0.88
2017-06-23T09:04:43.736Z,0.63
2017-06-23T09:05:37.769Z,1.01
2017-06-23T09:06:25.910Z,0.95
2017-06-23T09:07:14.954Z,0.58
2017-06-23T09:08:15.036Z,0.97
2017-06-23T09:09:10.096Z,0.59
2017-06-23T09:10:04.176Z,0.64
2017-06-23T09:10:53.276Z,0.61
2017-06-23T09:11:48.286Z,0.84
2017-06-23T09:12:42.387Z,0.38
2017-06-23T09:13:30.457Z,0.34
2017-06-23T09:14:30.525Z,0.34
2017-06-23T09:15:24.560Z,0.31
2017-06-23T09:16:24.612Z,0.28
2017-06-23T09:17:18.626Z,0.28
2017-06-23T09:18:13.805Z,0.31
2017-06-23T09:19:08.830Z,0.34
2017-06-23T09:20:08.826Z,0.44
2017-06-23T09:21:02.874Z,0.60
2017-06-23T09:21:56.934Z,0.60
2017-06-23T09:22:52.036Z,0.60
2017-06-23T09:23:47.025Z,0.86
2017-06-23T09:24:41.445Z,0.98
2017-06-23T09:25:35.157Z,0.90
2017-06-23T09:26:29.285Z,0.74
2017-06-23T09:27:24.366Z,0.92
2017-06-23T09:28:18.489Z,0.69
2017-06-23T09:29:18.504Z,0.99
2017-06-23T09:30:13.593Z,0.88
2017-06-23T09:31:08.676Z,0.53
2017-06-23T09:32:03.740Z,0.63
2017-06-23T09:32:51.858Z,0.82
2017-06-23T09:33:45.906Z,1.02
2017-06-23T09:34:40.975Z,0.63
2017-06-23T09:35:36.367Z,0.65
2017-06-23T09:36:25.142Z,0.54
2017-06-23T09:37:25.207Z,0.53
2017-06-23T09:38:19.286Z,0.61
2017-06-23T09:39:19.379Z,0.41
2017-06-23T09:40:14.459Z,0.60
2017-06-23T09:41:14.776Z,0.37
2017-06-23T09:42:09.523Z,0.38
2017-06-23T09:42:57.577Z,0.44
2017-06-23T09:43:51.765Z,0.81
2017-06-23T09:44:45.694Z,1.05
2017-06-23T09:45:39.756Z,0.69
2017-06-23T09:46:34.840Z,0.47
2017-06-23T09:47:28.871Z,0.49
2017-06-23T09:48:28.960Z,0.48
2017-06-23T09:49:24.057Z,0.49
2017-06-23T09:50:12.040Z,0.81
2017-06-23T09:51:07.166Z,0.77
2017-06-23T09:52:03.336Z,0.63
2017-06-23T09:52:56.264Z,0.97
2017-06-23T09:53:45.376Z,0.98
2017-06-23T09:54:40.455Z,0.55
2017-06-23T09:55:40.486Z,0.54
2017-06-23T09:56:40.586Z,0.40
2017-06-23T09:57:35.917Z,0.38
2017-06-23T09:58:24.669Z,0.40
2017-06-23T09:59:18.733Z,0.69
2017-06-23T10:00:12.794Z,0.83
2017-06-23T10:01:01.881Z,0.87
2017-06-23T10:01:49.973Z,0.76
2017-06-23T10:02:45.295Z,0.85
2017-06-23T10:03:39.095Z,0.53
2017-06-23T10:04:28.187Z,0.45
2017-06-23T10:05:22.232Z,0.52
2017-06-23T10:06:16.305Z,0.39
2017-06-23T10:07:10.349Z,0.36
2017-06-23T10:07:59.755Z,0.41
2017-06-23T10:08:47.457Z,0.33
2017-06-23T10:09:36.525Z,0.31
2017-06-23T10:10:31.537Z,0.30
2017-06-23T10:11:25.683Z,0.32
2017-06-23T10:12:14.692Z,0.36
2017-06-23T10:13:04.189Z,0.44
2017-06-23T10:13:57.863Z,0.58
2017-06-23T10:14:51.911Z,0.73
2017-06-23T10:15:39.972Z,0.81
2017-06-23T10:16:33.981Z,0.77
2017-06-23T10:17:23.076Z,0.73
2017-06-23T10:18:23.421Z,0.78
2017-06-23T10:19:17.246Z,0.81
2017-06-23T10:20:11.289Z,0.90
2017-06-23T10:21:00.392Z,0.88
2017-06-23T10:21:55.479Z,0.61
2017-06-23T10:22:50.507Z,0.56
2017-06-23T10:23:44.853Z,0.50
2017-06-23T10:24:44.614Z,0.49
2017-06-23T10:25:39.734Z,0.56
2017-06-23T10:26:33.804Z,0.60
2017-06-23T10:27:27.860Z,0.77
2017-06-23T10:28:22.023Z,0.72
2017-06-23T10:29:17.091Z,0.71
2017-06-23T10:30:12.137Z,0.56
2017-06-23T10:31:07.211Z,0.49
2017-06-23T10:31:56.347Z,0.46
2017-06-23T10:32:45.313Z,0.42
2017-06-23T10:33:45.467Z,0.41
2017-06-23T10:34:39.529Z,0.44
2017-06-23T10:35:39.575Z,0.41
2017-06-23T10:36:33.611Z,0.40
2017-06-23T10:37:33.691Z,0.41
2017-06-23T10:38:33.775Z,0.43
2017-06-23T10:39:22.820Z,0.42
2017-06-23T10:40:17.296Z,0.39
2017-06-23T10:41:10.988Z,0.43
2017-06-23T10:42:00.069Z,0.59
2017-06-23T10:42:48.115Z,0.66
2017-06-23T10:43:36.245Z,0.61
2017-06-23T10:44:25.262Z,0.68
2017-06-23T10:45:20.679Z,0.72
2017-06-23T10:46:15.493Z,0.73
2017-06-23T10:47:09.510Z,0.79
2017-06-23T10:47:58.556Z,0.75
2017-06-23T10:48:47.722Z,0.65
2017-06-23T10:49:36.777Z,0.63
2017-06-23T10:50:32.228Z,0.66
2017-06-23T10:51:25.942Z,0.70
2017-06-23T10:52:26.100Z,0.72
2017-06-23T10:53:27.082Z,0.66
2017-06-23T10:54:21.215Z,0.76
2017-06-23T10:55:10.279Z,0.60
2017-06-23T10:56:02.449Z,0.97
2017-06-23T10:56:53.413Z,1.02
2017-06-23T10:57:41.495Z,0.95
2017-06-23T10:58:35.516Z,1.07
2017-06-23T10:59:29.605Z,1.06
2017-06-23T11:00:23.721Z,1.15
2017-06-23T11:01:18.093Z,1.20
2017-06-23T11:02:17.903Z,1.09
2017-06-23T11:03:06.963Z,0.91
2017-06-23T11:04:01.017Z,1.02
2017-06-23T11:04:55.141Z,0.89
2017-06-23T11:05:49.185Z,0.67
2017-06-23T11:06:38.325Z,0.64
2017-06-23T11:07:26.380Z,0.84
2017-06-23T11:08:21.447Z,0.77
2017-06-23T11:09:10.469Z,0.66
2017-06-23T11:09:59.612Z,0.95
2017-06-23T11:10:53.664Z,0.46
2017-06-23T11:11:48.799Z,0.40
2017-06-23T11:12:48.844Z,0.40
2017-06-23T11:13:37.922Z,0.57
2017-06-23T11:14:31.999Z,0.54
2017-06-23T11:15:32.104Z,0.75
2017-06-23T11:16:27.075Z,0.60
2017-06-23T11:17:16.180Z,0.39
2017-06-23T11:18:10.273Z,0.33
2017-06-23T11:19:04.263Z,0.29
2017-06-23T11:19:58.372Z,0.29
2017-06-23T11:20:52.425Z,0.29
2017-06-23T11:21:41.468Z,0.30
2017-06-23T11:22:35.562Z,0.32
2017-06-23T11:23:35.594Z,0.37
2017-06-23T11:24:30.728Z,0.58
2017-06-23T11:25:25.713Z,0.61
2017-06-23T11:26:14.785Z,0.61
2017-06-23T11:27:09.880Z,0.61
2017-06-23T11:27:59.008Z,0.59
2017-06-23T11:28:47.957Z,0.61
2017-06-23T11:29:42.106Z,0.58
2017-06-23T11:30:31.096Z,0.40
2017-06-23T11:31:25.212Z,0.34
2017-06-23T11:32:25.229Z,0.32
2017-06-23T11:33:19.405Z,0.34
2017-06-23T11:34:19.453Z,0.38
2017-06-23T11:35:13.493Z,0.42
2017-06-23T11:36:07.549Z,0.58
2017-06-23T11:37:02.654Z,0.42
2017-06-23T11:37:56.645Z,0.40
2017-06-23T11:38:51.754Z,0.40
2017-06-23T11:39:40.823Z,0.40
2017-06-23T11:40:34.862Z,0.46
2017-06-23T11:41:29.909Z,0.47
2017-06-23T11:42:24.996Z,0.61
2017-06-23T11:43:20.054Z,0.64
2017-06-23T11:44:20.216Z,0.61
2017-06-23T11:45:14.238Z,0.45
2017-06-23T11:46:08.306Z,0.54
2017-06-23T11:47:02.322Z,0.58
2017-06-23T11:47:56.462Z,0.41
2017-06-23T11:48:56.535Z,0.40
2017-06-23T11:49:50.977Z,0.70
2017-06-23T11:50:44.622Z,0.78
2017-06-23T11:51:38.845Z,0.65
2017-06-23T11:52:32.780Z,0.60
2017-06-23T11:53:26.923Z,0.64
2017-06-23T11:54:20.974Z,0.81
2017-06-23T11:55:21.410Z,0.91